Time;durP1;ratioP1;P1;durP2;ratioP2;P2;SDS_P1;SDS_P2;PMS_P1;PMS_P2;Temp;Humidity;BMP_temperature;BMP_pressure;BME280_temperature;BME280_humidity;BME280_pressure;Samples;Min_cycle;Max_cycle;Signal;HPM_P1;HPM_P2
2021/04/29 00:01:11;;;;;;;10.17;9.27;;;11.70;99.90;;;;;;5092202;28;20644;-87
2021/04/29 00:03:37;;;;;;;9.63;8.83;;;11.70;99.90;;;;;;5095463;28;20685;-87
2021/04/29 00:06:06;;;;;;;10.03;9.20;;;11.70;99.90;;;;;;5090719;28;21146;-87
2021/04/29 00:08:40;;;;;;;9.50;8.60;;;11.60;99.90;;;;;;5090940;28;20717;-87
2021/04/29 00:11:17;;;;;;;10.23;9.43;;;11.60;99.90;;;;;;5086229;28;20664;-87
2021/04/29 00:13:50;;;;;;;10.90;9.80;;;11.60;99.90;;;;;;5088116;28;20632;-87
2021/04/29 00:16:20;;;;;;;10.43;9.53;;;11.50;99.90;;;;;;5078503;28;20644;-87
2021/04/29 00:18:50;;;;;;;11.00;10.17;;;11.50;99.90;;;;;;5077673;28;20645;-88
2021/04/29 00:21:26;;;;;;;10.57;9.67;;;11.50;99.90;;;;;;5084703;28;20725;-88
2021/04/29 00:23:59;;;;;;;10.90;10.00;;;11.50;99.90;;;;;;5081858;28;20636;-89
2021/04/29 00:26:54;;;;;;;11.30;10.20;;;11.50;99.90;;;;;;5087149;28;20667;-88
2021/04/29 00:29:36;;;;;;;13.67;10.60;;;11.40;99.90;;;;;;5083495;28;20608;-88
2021/04/29 00:32:11;;;;;;;11.00;9.93;;;11.40;99.90;;;;;;5085257;28;20616;-88
2021/04/29 00:34:43;;;;;;;11.27;10.37;;;11.40;99.90;;;;;;5092560;28;20650;-87
2021/04/29 00:37:10;;;;;;;10.77;9.80;;;11.40;99.90;;;;;;5098492;28;20661;-88
2021/04/29 00:39:36;;;;;;;10.63;9.63;;;11.40;99.90;;;;;;5093831;28;20632;-88
2021/04/29 00:42:02;;;;;;;12.60;11.50;;;11.50;99.90;;;;;;5097443;28;21224;-88
2021/04/29 00:44:33;;;;;;;13.67;12.43;;;11.40;99.90;;;;;;5085598;28;20623;-88
2021/04/29 00:47:01;;;;;;;15.10;13.60;;;11.40;99.90;;;;;;5082503;28;20617;-88
2021/04/29 00:49:29;;;;;;;13.50;12.30;;;11.40;99.90;;;;;;5086309;28;20619;-88
2021/04/29 00:51:58;;;;;;;14.27;12.97;;;11.40;99.90;;;;;;5083328;28;20743;-87
2021/04/29 00:54:25;;;;;;;13.50;12.20;;;11.40;99.90;;;;;;5087425;28;20636;-87
2021/04/29 00:56:51;;;;;;;13.40;12.30;;;11.40;99.90;;;;;;5096329;28;20703;-88
2021/04/29 00:59:24;;;;;;;17.53;13.13;;;11.40;99.90;;;;;;5093387;28;20615;-87
2021/04/29 01:01:56;;;;;;;15.57;13.97;;;11.40;99.90;;;;;;5089331;28;20667;-89
2021/04/29 01:04:29;;;;;;;13.80;12.80;;;11.30;99.90;;;;;;5087092;28;20991;-88
2021/04/29 01:07:00;;;;;;;13.67;12.47;;;11.30;99.90;;;;;;5086699;28;20637;-87
2021/04/29 01:09:37;;;;;;;13.53;12.33;;;11.30;99.90;;;;;;5083881;28;20652;-88
2021/04/29 01:12:13;;;;;;;13.33;12.33;;;11.40;99.90;;;;;;5084686;28;20769;-87
2021/04/29 01:14:45;;;;;;;12.80;11.70;;;11.40;99.90;;;;;;5079371;28;20631;-88
2021/04/29 01:17:15;;;;;;;12.40;11.50;;;11.40;99.90;;;;;;5079715;28;20694;-90
2021/04/29 01:19:49;;;;;;;13.40;12.20;;;11.40;99.90;;;;;;5079609;28;20738;-89
2021/04/29 01:22:18;;;;;;;13.63;12.53;;;11.40;99.90;;;;;;5085672;28;20657;-88
2021/04/29 01:24:58;;;;;;;13.70;12.40;;;11.40;99.90;;;;;;5090193;28;20616;-88
2021/04/29 01:27:28;;;;;;;12.17;11.07;;;11.50;99.90;;;;;;5089076;28;20842;-87
2021/04/29 01:29:55;;;;;;;13.20;11.90;;;11.40;99.90;;;;;;5089230;28;20667;-88
2021/04/29 01:32:22;;;;;;;16.83;12.70;;;11.40;99.90;;;;;;5088214;28;20712;-88
2021/04/29 01:34:49;;;;;;;14.00;11.27;;;11.40;99.90;;;;;;5090251;28;20617;-89
2021/04/29 01:37:19;;;;;;;14.67;13.27;;;11.40;99.90;;;;;;5095978;28;20680;-88
2021/04/29 01:39:49;;;;;;;13.90;12.60;;;11.50;99.90;;;;;;5089238;28;20703;-87
2021/04/29 01:42:17;;;;;;;14.90;13.30;;;11.50;99.90;;;;;;5098109;28;21666;-88
2021/04/29 01:44:49;;;;;;;14.27;13.07;;;11.40;99.90;;;;;;5097294;28;20651;-88
2021/04/29 01:47:19;;;;;;;14.27;13.10;;;11.50;99.90;;;;;;5096656;28;20636;-88
2021/04/29 01:49:47;;;;;;;14.90;13.40;;;11.40;99.90;;;;;;5098136;28;20663;-89
2021/04/29 01:52:14;;;;;;;14.47;13.30;;;11.50;99.90;;;;;;5097813;28;20639;-89
2021/04/29 01:54:44;;;;;;;14.33;13.10;;;11.50;99.90;;;;;;5092497;28;20623;-89
2021/04/29 01:57:10;;;;;;;13.13;12.03;;;11.50;99.90;;;;;;5089312;28;20649;-88
2021/04/29 01:59:40;;;;;;;14.40;13.10;;;11.50;99.90;;;;;;5095884;28;20710;-88
2021/04/29 02:02:12;;;;;;;13.20;12.10;;;11.50;99.90;;;;;;5092695;28;20633;-87
2021/04/29 02:04:39;;;;;;;14.03;12.87;;;11.60;99.90;;;;;;5092643;28;20662;-87
2021/04/29 02:07:12;;;;;;;14.27;12.93;;;11.60;99.90;;;;;;5090514;28;20616;-88
2021/04/29 02:09:43;;;;;;;14.03;12.90;;;11.60;99.90;;;;;;5088324;28;20643;-89
2021/04/29 02:12:11;;;;;;;12.03;11.13;;;11.70;99.90;;;;;;5086737;28;20632;-87
2021/04/29 02:14:47;;;;;;;12.17;11.17;;;11.70;99.90;;;;;;5091052;28;20623;-87
2021/04/29 02:17:33;;;;;;;10.43;9.53;;;11.70;99.90;;;;;;5088995;28;20998;-88
2021/04/29 02:20:05;;;;;;;9.87;9.00;;;11.70;99.90;;;;;;5097249;28;20678;-87
2021/04/29 02:22:36;;;;;;;7.73;7.03;;;11.80;99.90;;;;;;5099141;28;20625;-89
2021/04/29 02:25:04;;;;;;;8.83;7.93;;;11.90;99.90;;;;;;5095933;28;20662;-88
2021/04/29 02:27:35;;;;;;;7.70;7.00;;;12.00;99.90;;;;;;5087886;28;20654;-88
2021/04/29 02:30:04;;;;;;;7.60;6.90;;;12.00;99.90;;;;;;5092375;28;20655;-88
2021/04/29 02:32:32;;;;;;;7.63;7.03;;;12.00;99.90;;;;;;5093254;28;20597;-87
2021/04/29 02:34:59;;;;;;;7.47;6.43;;;12.10;99.90;;;;;;5093574;28;20616;-88
2021/04/29 02:37:25;;;;;;;7.43;6.73;;;12.10;99.90;;;;;;5098509;28;20662;-87
2021/04/29 02:39:52;;;;;;;6.30;5.80;;;12.10;99.90;;;;;;5094053;28;20648;-88
2021/04/29 02:42:18;;;;;;;7.00;5.60;;;12.10;99.90;;;;;;5091779;28;21122;-87
2021/04/29 02:44:44;;;;;;;6.17;5.67;;;12.20;99.90;;;;;;5089455;28;21155;-87
2021/04/29 02:47:12;;;;;;;6.80;6.30;;;12.10;99.90;;;;;;5091840;28;20616;-89
2021/04/29 02:49:42;;;;;;;5.60;5.10;;;12.20;99.90;;;;;;5095661;28;21073;-89
2021/04/29 02:52:13;;;;;;;6.27;5.67;;;12.20;99.90;;;;;;5090433;28;20711;-88
2021/04/29 02:54:40;;;;;;;4.60;4.30;;;12.20;99.90;;;;;;5090825;28;20639;-89
2021/04/29 02:57:07;;;;;;;4.50;3.83;;;12.20;99.90;;;;;;5088527;28;20656;-88
2021/04/29 02:59:40;;;;;;;2.97;2.77;;;12.30;99.90;;;;;;5088815;28;20650;-88
2021/04/29 03:02:15;;;;;;;5.90;2.43;;;12.40;99.90;;;;;;5098308;28;20626;-87
2021/04/29 03:04:44;;;;;;;2.53;1.80;;;12.40;99.90;;;;;;5100297;28;20643;-88
2021/04/29 03:07:11;;;;;;;2.03;1.93;;;12.40;99.90;;;;;;5093479;28;21005;-89
2021/04/29 03:09:37;;;;;;;2.17;1.97;;;12.40;99.90;;;;;;5091088;28;20639;-88
2021/04/29 03:12:05;;;;;;;3.90;3.10;;;12.50;99.90;;;;;;5089230;28;20720;-87
2021/04/29 03:14:31;;;;;;;2.03;1.87;;;12.40;99.90;;;;;;5092743;28;20614;-88
2021/04/29 03:17:00;;;;;;;1.57;1.47;;;12.50;99.90;;;;;;5088113;28;20692;-88
2021/04/29 03:19:29;;;;;;;1.60;1.50;;;12.40;99.90;;;;;;5093553;28;20681;-88
2021/04/29 03:21:56;;;;;;;1.30;1.20;;;12.20;99.90;;;;;;5093514;28;20628;-88
2021/04/29 03:24:22;;;;;;;1.83;1.30;;;12.10;99.90;;;;;;5095552;28;20624;-88
2021/04/29 03:26:54;;;;;;;1.30;1.20;;;12.10;99.90;;;;;;5091221;28;20628;-88
2021/04/29 03:29:21;;;;;;;2.30;1.43;;;12.10;99.90;;;;;;5097310;28;20631;-88
2021/04/29 03:31:47;;;;;;;2.50;1.60;;;12.00;99.90;;;;;;5101431;28;20624;-87
2021/04/29 03:34:13;;;;;;;1.10;1.03;;;12.00;99.90;;;;;;5094654;28;21094;-88
2021/04/29 03:36:44;;;;;;;2.23;1.20;;;12.00;99.90;;;;;;5094309;28;20652;-87
2021/04/29 03:39:11;;;;;;;1.90;1.43;;;11.90;99.90;;;;;;5091128;28;20624;-88
2021/04/29 03:41:37;;;;;;;1.27;1.17;;;11.90;99.90;;;;;;5091997;28;20644;-87
2021/04/29 03:44:05;;;;;;;2.00;1.80;;;11.90;99.90;;;;;;5092390;28;20601;-87
2021/04/29 03:46:31;;;;;;;1.30;1.00;;;11.90;99.90;;;;;;5087618;28;20617;-89
2021/04/29 03:48:57;;;;;;;1.47;1.17;;;11.90;99.90;;;;;;5090714;28;20754;-89
2021/04/29 03:51:24;;;;;;;1.40;1.27;;;11.90;99.90;;;;;;5089360;28;20667;-89
2021/04/29 03:53:50;;;;;;;1.20;1.10;;;11.90;99.90;;;;;;5095905;28;20715;-89
2021/04/29 03:56:18;;;;;;;1.10;1.00;;;11.90;99.90;;;;;;5094717;28;20664;-90
2021/04/29 03:58:44;;;;;;;1.00;0.90;;;11.90;99.90;;;;;;5090937;28;20624;-89
2021/04/29 04:01:11;;;;;;;1.10;1.00;;;11.80;99.90;;;;;;5095309;28;21255;-88
2021/04/29 04:03:37;;;;;;;1.10;1.00;;;11.80;99.90;;;;;;5089765;28;20639;-87
2021/04/29 04:06:04;;;;;;;1.50;1.00;;;11.80;99.90;;;;;;5094797;28;20618;-88
2021/04/29 04:08:33;;;;;;;0.80;0.60;;;11.70;99.90;;;;;;5091825;28;20670;-87
2021/04/29 04:11:00;;;;;;;1.87;0.77;;;11.70;99.90;;;;;;5095910;28;20648;-88
2021/04/29 04:13:33;;;;;;;0.77;0.77;;;11.70;99.90;;;;;;5092095;28;20612;-87
2021/04/29 04:15:59;;;;;;;4.10;1.20;;;11.60;99.90;;;;;;5098377;28;20640;-87
2021/04/29 04:18:27;;;;;;;4.63;0.90;;;11.60;99.90;;;;;;5093082;28;20634;-88
2021/04/29 04:20:54;;;;;;;1.40;0.83;;;11.60;99.90;;;;;;5086827;28;20716;-88
2021/04/29 04:23:20;;;;;;;1.13;1.03;;;11.60;99.90;;;;;;5084837;28;20657;-88
2021/04/29 04:25:47;;;;;;;0.93;0.93;;;11.60;99.90;;;;;;5088846;28;21091;-89
2021/04/29 04:28:19;;;;;;;1.17;1.07;;;11.70;99.90;;;;;;5092347;28;20603;-88
2021/04/29 04:30:51;;;;;;;1.13;0.90;;;11.60;99.90;;;;;;5089625;28;20737;-88
2021/04/29 04:33:17;;;;;;;1.60;1.10;;;11.60;99.90;;;;;;5090242;28;20982;-89
2021/04/29 04:35:46;;;;;;;1.63;0.67;;;11.50;99.90;;;;;;5090612;28;20985;-88
2021/04/29 04:38:17;;;;;;;1.37;0.87;;;11.50;99.90;;;;;;5089945;28;20639;-88
2021/04/29 04:40:50;;;;;;;1.93;1.23;;;11.40;99.90;;;;;;5095781;28;21252;-87
2021/04/29 04:43:18;;;;;;;1.03;0.93;;;11.40;99.90;;;;;;5089174;28;20972;-88
2021/04/29 04:45:44;;;;;;;2.50;0.90;;;11.40;99.90;;;;;;5086941;28;21204;-88
2021/04/29 04:48:12;;;;;;;1.23;1.13;;;11.40;99.90;;;;;;5085912;28;20640;-88
2021/04/29 04:50:39;;;;;;;1.40;1.30;;;11.30;99.90;;;;;;5086191;28;20662;-87
2021/04/29 04:53:06;;;;;;;1.10;1.00;;;11.30;99.90;;;;;;5087344;28;20605;-90
2021/04/29 04:55:44;;;;;;;0.80;0.80;;;11.30;99.90;;;;;;5084332;28;20670;-88
2021/04/29 04:58:14;;;;;;;0.90;0.90;;;11.40;99.90;;;;;;5089957;28;20963;-88
2021/04/29 05:00:48;;;;;;;1.30;0.90;;;11.40;99.90;;;;;;5092866;28;20662;-88
2021/04/29 05:03:19;;;;;;;0.80;0.80;;;11.40;99.90;;;;;;5099650;28;20662;-88
2021/04/29 05:05:46;;;;;;;1.90;1.40;;;11.40;99.90;;;;;;5100097;28;20630;-87
2021/04/29 05:08:21;;;;;;;1.33;1.23;;;11.30;99.90;;;;;;5102095;28;20628;-88
2021/04/29 05:10:58;;;;;;;1.67;1.57;;;11.40;99.90;;;;;;5099196;28;20696;-88
2021/04/29 05:13:25;;;;;;;1.57;1.47;;;11.50;99.90;;;;;;5096442;28;20700;-89
2021/04/29 05:15:52;;;;;;;3.63;3.33;;;11.70;99.90;;;;;;5099358;28;20613;-88
2021/04/29 05:18:23;;;;;;;2.07;1.97;;;11.80;99.90;;;;;;5094987;28;20632;-88
2021/04/29 05:21:04;;;;;;;1.77;1.67;;;11.80;99.90;;;;;;5093590;28;20656;-88
2021/04/29 05:23:33;;;;;;;2.63;1.33;;;11.90;99.90;;;;;;5094490;28;20636;-87
2021/04/29 05:25:59;;;;;;;4.33;1.60;;;12.00;99.90;;;;;;5094483;28;20640;-87
2021/04/29 05:28:26;;;;;;;2.27;1.70;;;12.00;99.90;;;;;;5094380;28;20626;-89
2021/04/29 05:30:53;;;;;;;2.47;1.80;;;12.00;99.90;;;;;;5088600;28;21025;-88
2021/04/29 05:33:22;;;;;;;1.83;1.73;;;12.10;99.90;;;;;;5084951;28;20613;-89
2021/04/29 05:35:49;;;;;;;2.93;2.17;;;12.00;99.90;;;;;;5092244;28;20620;-87
2021/04/29 05:38:16;;;;;;;3.63;2.40;;;12.10;99.90;;;;;;5089784;28;21262;-88
2021/04/29 05:40:43;;;;;;;2.57;2.37;;;12.20;99.90;;;;;;5090941;28;20659;-86
2021/04/29 05:43:13;;;;;;;2.43;2.23;;;12.20;99.90;;;;;;5086262;28;20612;-87
2021/04/29 05:45:45;;;;;;;4.50;2.47;;;12.20;99.90;;;;;;5087287;28;20723;-88
2021/04/29 05:48:12;;;;;;;2.93;1.73;;;12.20;99.90;;;;;;5091261;28;20619;-88
2021/04/29 05:50:40;;;;;;;1.93;1.63;;;12.20;99.90;;;;;;5089891;28;21636;-88
2021/04/29 05:53:06;;;;;;;2.53;1.53;;;12.20;99.90;;;;;;5082986;28;20631;-88
2021/04/29 05:55:33;;;;;;;1.87;1.40;;;12.10;99.90;;;;;;5090741;28;20673;-87
2021/04/29 05:58:01;;;;;;;2.73;1.80;;;12.10;99.90;;;;;;5090242;28;21038;-88
2021/04/29 06:00:28;;;;;;;2.73;1.60;;;12.10;99.90;;;;;;5093497;28;20652;-87
2021/04/29 06:02:55;;;;;;;3.10;2.00;;;12.20;99.90;;;;;;5092134;28;20642;-87
2021/04/29 06:05:23;;;;;;;2.80;2.53;;;12.40;99.90;;;;;;5097971;28;20681;-89
2021/04/29 06:07:55;;;;;;;2.50;2.30;;;12.40;99.90;;;;;;5088331;28;21182;-87
2021/04/29 06:10:25;;;;;;;2.13;2.00;;;12.40;99.90;;;;;;5090356;28;20720;-88
2021/04/29 06:12:52;;;;;;;3.13;2.40;;;12.50;99.90;;;;;;5089754;28;20624;-89
2021/04/29 06:15:19;;;;;;;6.20;3.10;;;12.50;99.90;;;;;;5090418;28;20651;-88
2021/04/29 06:17:46;;;;;;;3.70;2.70;;;12.60;99.90;;;;;;5083457;28;20663;-87
2021/04/29 06:20:16;;;;;;;5.40;2.87;;;12.60;99.90;;;;;;5093887;28;20611;-88
2021/04/29 06:22:43;;;;;;;2.43;2.23;;;12.40;99.90;;;;;;5090072;28;21178;-88
2021/04/29 06:25:11;;;;;;;6.00;2.60;;;12.40;99.90;;;;;;5095356;28;20699;-88
2021/04/29 06:27:37;;;;;;;3.33;2.53;;;12.60;99.90;;;;;;5088892;28;20697;-88
2021/04/29 06:30:09;;;;;;;4.87;3.30;;;12.70;99.90;;;;;;5091989;28;20628;-87
2021/04/29 06:32:38;;;;;;;3.37;3.07;;;12.60;99.90;;;;;;5092299;28;20627;-88
2021/04/29 06:35:05;;;;;;;2.90;2.23;;;12.60;99.90;;;;;;5087460;28;20682;-88
2021/04/29 06:37:33;;;;;;;4.10;2.20;;;12.70;99.90;;;;;;5089758;28;20656;-89
2021/04/29 06:40:14;;;;;;;5.10;3.00;;;12.80;99.90;;;;;;5090065;28;21141;-88
2021/04/29 06:42:40;;;;;;;5.73;3.00;;;13.10;99.90;;;;;;5087442;28;20612;-88
2021/04/29 06:45:08;;;;;;;6.40;2.50;;;13.10;99.90;;;;;;5093595;28;20693;-89
2021/04/29 06:47:35;;;;;;;4.00;2.70;;;13.40;99.90;;;;;;5091445;28;20608;-89
2021/04/29 06:50:01;;;;;;;3.53;3.07;;;13.50;99.90;;;;;;5089426;28;20667;-89
2021/04/29 06:52:28;;;;;;;3.83;2.30;;;13.50;99.90;;;;;;5095675;28;20616;-87
2021/04/29 06:54:54;;;;;;;7.60;4.13;;;13.50;99.90;;;;;;5093003;28;20782;-88
2021/04/29 06:57:21;;;;;;;3.40;3.10;;;13.80;99.90;;;;;;5092562;28;20655;-89
2021/04/29 06:59:48;;;;;;;7.17;3.70;;;14.20;99.90;;;;;;5095187;28;20612;-89
2021/04/29 07:02:14;;;;;;;6.57;5.93;;;14.30;99.90;;;;;;5092991;28;20628;-87
2021/04/29 07:04:41;;;;;;;6.33;4.27;;;14.50;99.90;;;;;;5091387;28;20589;-90
2021/04/29 07:07:07;;;;;;;4.40;3.80;;;14.70;99.90;;;;;;5090088;28;20635;-89
2021/04/29 07:09:34;;;;;;;4.30;3.90;;;14.50;99.90;;;;;;5088922;28;20714;-88
2021/04/29 07:12:00;;;;;;;6.40;5.03;;;14.50;99.90;;;;;;5091145;28;20643;-89
2021/04/29 07:14:28;;;;;;;6.93;5.53;;;14.80;99.90;;;;;;5091740;28;20965;-88
2021/04/29 07:16:59;;;;;;;4.53;4.00;;;14.80;99.90;;;;;;5092695;28;20719;-90
2021/04/29 07:19:26;;;;;;;7.57;5.00;;;14.80;99.90;;;;;;5089455;28;20692;-88
2021/04/29 07:21:52;;;;;;;6.10;5.50;;;14.80;99.90;;;;;;5090920;28;20657;-90
2021/04/29 07:24:19;;;;;;;5.47;4.50;;;14.60;99.90;;;;;;5100446;28;20722;-88
2021/04/29 07:26:45;;;;;;;5.30;3.90;;;14.90;99.90;;;;;;5088700;28;20658;-88
2021/04/29 07:29:12;;;;;;;6.30;4.23;;;14.90;99.90;;;;;;5094126;28;20720;-89
2021/04/29 07:31:39;;;;;;;5.67;4.90;;;15.10;99.90;;;;;;5093321;28;20601;-89
2021/04/29 07:34:06;;;;;;;4.60;3.67;;;15.20;99.90;;;;;;5087283;28;20704;-88
2021/04/29 07:36:37;;;;;;;3.50;3.13;;;15.50;99.90;;;;;;5091300;28;20721;-88
2021/04/29 07:39:04;;;;;;;4.20;3.80;;;15.50;99.90;;;;;;5091224;28;20632;-89
2021/04/29 07:41:31;;;;;;;4.67;4.07;;;15.50;99.90;;;;;;5096225;28;20619;-88
2021/04/29 07:43:59;;;;;;;5.50;4.07;;;15.60;99.90;;;;;;5094403;28;20645;-89
2021/04/29 07:46:36;;;;;;;4.70;4.30;;;15.30;99.90;;;;;;5092397;28;20644;-89
2021/04/29 07:49:06;;;;;;;6.80;6.10;;;15.30;99.90;;;;;;5099332;28;20635;-88
2021/04/29 07:51:32;;;;;;;5.60;5.10;;;15.20;99.90;;;;;;5098837;28;21072;-90
2021/04/29 07:54:00;;;;;;;5.40;5.00;;;15.00;99.90;;;;;;5098329;28;20628;-90
2021/04/29 07:56:26;;;;;;;6.23;4.87;;;15.30;99.90;;;;;;5093602;28;20672;-90
2021/04/29 07:58:55;;;;;;;6.80;5.90;;;15.40;99.90;;;;;;5097068;28;20627;-90
2021/04/29 08:01:23;;;;;;;6.20;5.70;;;15.80;99.90;;;;;;5091879;28;20617;-89
2021/04/29 08:03:50;;;;;;;5.73;5.13;;;15.70;99.90;;;;;;5091689;28;20637;-89
2021/04/29 08:06:23;;;;;;;6.10;5.47;;;15.80;99.90;;;;;;5098535;28;20656;-90
2021/04/29 08:08:51;;;;;;;6.20;5.37;;;15.70;99.90;;;;;;5093987;28;21466;-90
2021/04/29 08:11:19;;;;;;;11.57;5.10;;;15.80;99.90;;;;;;5093622;27;20658;-89
2021/04/29 08:13:46;;;;;;;5.50;5.00;;;15.90;99.90;;;;;;5092704;28;20613;-89
2021/04/29 08:16:14;;;;;;;6.50;5.80;;;16.30;99.90;;;;;;5097958;28;20655;-91
2021/04/29 08:18:48;;;;;;;6.80;6.10;;;16.10;99.90;;;;;;5095699;28;20659;-92
2021/04/29 08:21:16;;;;;;;6.40;5.80;;;16.20;99.90;;;;;;5099087;28;20614;-92
2021/04/29 08:23:46;;;;;;;6.80;6.20;;;16.50;99.90;;;;;;5099716;28;20615;-89
2021/04/29 08:26:13;;;;;;;8.90;6.70;;;16.40;99.60;;;;;;5091260;28;20675;-90
2021/04/29 08:28:42;;;;;;;6.87;5.50;;;16.30;98.00;;;;;;5097263;28;20689;-90
2021/04/29 08:31:09;;;;;;;6.90;6.00;;;16.20;98.90;;;;;;5094921;28;20638;-90
2021/04/29 08:33:38;;;;;;;6.97;5.70;;;16.60;98.80;;;;;;5089585;28;20635;-91
2021/04/29 08:36:05;;;;;;;7.10;6.50;;;16.80;98.80;;;;;;5090679;28;20697;-91
2021/04/29 08:38:33;;;;;;;8.23;6.73;;;16.70;97.60;;;;;;5089546;28;20746;-89
2021/04/29 08:41:03;;;;;;;6.57;5.97;;;16.60;98.50;;;;;;5090311;28;20643;-91
2021/04/29 08:43:39;;;;;;;7.57;6.77;;;16.70;98.40;;;;;;5094675;28;20628;-90
2021/04/29 08:46:06;;;;;;;8.10;6.70;;;16.70;96.70;;;;;;5093180;28;20652;-90
2021/04/29 08:48:35;;;;;;;7.23;6.03;;;16.70;97.50;;;;;;5090381;28;20979;-91
2021/04/29 08:51:03;;;;;;;7.13;6.43;;;16.80;97.60;;;;;;5092825;28;20700;-90
2021/04/29 08:53:37;;;;;;;8.33;7.33;;;16.40;96.70;;;;;;5093332;28;20609;-90
2021/04/29 08:56:07;;;;;;;8.83;7.03;;;16.40;96.80;;;;;;5096651;28;20647;-90
2021/04/29 08:58:34;;;;;;;8.30;7.50;;;16.40;97.10;;;;;;5089780;28;20645;-90
2021/04/29 09:01:03;;;;;;;6.70;6.10;;;16.30;96.60;;;;;;5102321;28;20628;-89
2021/04/29 09:03:32;;;;;;;7.00;6.30;;;16.20;97.60;;;;;;5099016;28;20636;-89
2021/04/29 09:06:02;;;;;;;6.83;6.13;;;16.50;97.70;;;;;;5104701;28;20671;-89
2021/04/29 09:08:39;;;;;;;6.20;5.60;;;17.00;96.80;;;;;;5114541;28;20613;-90
2021/04/29 09:11:13;;;;;;;6.30;5.70;;;17.50;96.90;;;;;;5109062;28;20729;-89
2021/04/29 09:13:42;;;;;;;6.27;5.60;;;17.70;96.10;;;;;;5112687;28;20710;-90
2021/04/29 09:16:11;;;;;;;7.70;7.00;;;17.50;95.90;;;;;;5098417;28;20750;-90
2021/04/29 09:18:40;;;;;;;7.07;6.47;;;17.30;95.60;;;;;;5106719;28;20652;-89
2021/04/29 09:21:15;;;;;;;7.17;6.47;;;16.90;94.60;;;;;;5099163;28;20827;-89
2021/04/29 09:23:52;;;;;;;6.23;5.50;;;16.80;95.70;;;;;;5114125;28;20683;-92
2021/04/29 09:26:33;;;;;;;5.97;5.57;;;16.80;95.80;;;;;;5102835;28;20656;-91
2021/04/29 09:29:09;;;;;;;6.83;5.93;;;16.80;96.20;;;;;;5110370;28;20612;-92
2021/04/29 09:31:51;;;;;;;8.10;7.30;;;17.00;95.10;;;;;;5106984;28;20631;-92
2021/04/29 09:34:26;;;;;;;6.53;5.93;;;17.10;95.00;;;;;;5106400;28;20666;-91
2021/04/29 09:37:01;;;;;;;6.83;6.20;;;16.80;95.30;;;;;;5105163;28;20779;-91
2021/04/29 09:39:33;;;;;;;7.10;6.40;;;16.60;96.40;;;;;;5103022;28;20615;-90
2021/04/29 09:42:02;;;;;;;7.00;6.30;;;16.10;95.50;;;;;;5093490;28;20639;-88
2021/04/29 09:44:28;;;;;;;8.90;7.13;;;15.80;96.90;;;;;;5100232;28;20581;-89
2021/04/29 09:47:00;;;;;;;7.30;6.70;;;15.70;96.80;;;;;;5096608;28;20660;-89
2021/04/29 09:49:30;;;;;;;7.77;6.50;;;15.70;97.10;;;;;;5094170;28;21032;-89
2021/04/29 09:51:59;;;;;;;6.17;5.63;;;15.60;97.20;;;;;;5090043;28;20636;-89
2021/04/29 09:54:32;;;;;;;6.20;5.60;;;15.40;97.30;;;;;;5096823;28;20632;-89
2021/04/29 09:57:06;;;;;;;6.47;4.70;;;14.40;99.90;;;;;;5088622;28;20711;-88
2021/04/29 09:59:33;;;;;;;4.50;4.20;;;14.00;99.90;;;;;;5094486;28;20631;-89
2021/04/29 10:02:01;;;;;;;5.00;4.60;;;13.90;99.90;;;;;;5085062;28;20654;-89
2021/04/29 10:04:29;;;;;;;6.00;4.73;;;14.00;99.90;;;;;;5090601;28;20638;-89
2021/04/29 10:06:57;;;;;;;5.80;5.30;;;14.40;99.90;;;;;;5085048;28;20651;-88
2021/04/29 10:09:27;;;;;;;5.57;5.10;;;14.70;99.90;;;;;;5086832;28;20627;-87
2021/04/29 10:11:59;;;;;;;5.83;5.20;;;15.00;99.90;;;;;;5090710;28;20687;-88
2021/04/29 10:14:33;;;;;;;5.73;5.33;;;15.40;99.90;;;;;;5086426;28;20627;-88
2021/04/29 10:17:05;;;;;;;5.30;4.83;;;15.90;99.90;;;;;;5087516;28;20675;-91
2021/04/29 10:19:35;;;;;;;7.30;5.57;;;16.10;99.80;;;;;;5087378;28;20644;-89
2021/04/29 10:22:03;;;;;;;6.27;5.67;;;16.50;99.30;;;;;;5090150;28;20623;-90
2021/04/29 10:24:30;;;;;;;6.50;5.90;;;16.60;99.00;;;;;;5088569;28;21068;-89
2021/04/29 10:27:02;;;;;;;5.50;5.00;;;16.70;99.30;;;;;;5089040;28;21145;-89
2021/04/29 10:29:29;;;;;;;6.17;5.00;;;16.80;98.60;;;;;;5092688;28;20635;-89
2021/04/29 10:31:57;;;;;;;6.83;6.23;;;17.20;98.20;;;;;;5092050;28;20620;-89
2021/04/29 10:34:36;;;;;;;7.20;6.43;;;17.30;97.00;;;;;;5084153;28;20701;-90
2021/04/29 10:37:14;;;;;;;9.23;7.37;;;17.60;97.00;;;;;;5092883;28;20690;-89
2021/04/29 10:39:59;;;;;;;6.60;5.77;;;17.60;96.80;;;;;;5088060;28;20593;-90
2021/04/29 10:42:28;;;;;;;8.20;7.10;;;17.90;96.80;;;;;;5083851;28;20681;-90
2021/04/29 10:44:59;;;;;;;6.40;5.80;;;17.70;96.40;;;;;;5095910;28;20631;-90
2021/04/29 10:47:28;;;;;;;6.83;6.23;;;17.50;97.30;;;;;;5087245;28;21052;-90
2021/04/29 10:50:07;;;;;;;6.13;5.63;;;17.30;96.10;;;;;;5086331;28;20588;-90
2021/04/29 10:52:47;;;;;;;7.03;6.33;;;17.00;95.90;;;;;;5090604;28;21032;-89
2021/04/29 10:55:23;;;;;;;6.17;5.60;;;16.80;95.60;;;;;;5088890;28;20659;-89
2021/04/29 10:57:49;;;;;;;7.10;6.07;;;16.60;95.80;;;;;;5087890;28;20674;-87
2021/04/29 11:00:17;;;;;;;7.83;7.00;;;16.50;96.30;;;;;;5088992;28;20620;-90
2021/04/29 11:02:44;;;;;;;7.70;5.80;;;16.60;95.90;;;;;;5088780;28;21212;-88
2021/04/29 11:05:22;;;;;;;7.63;6.63;;;16.90;96.30;;;;;;5092037;28;21054;-89
2021/04/29 11:07:49;;;;;;;6.10;5.50;;;17.10;95.80;;;;;;5087152;28;20624;-90
2021/04/29 11:10:21;;;;;;;6.27;5.70;;;17.30;95.60;;;;;;5094813;28;20639;-89
2021/04/29 11:12:50;;;;;;;7.47;6.63;;;17.30;95.20;;;;;;5089507;28;20628;-91
2021/04/29 11:15:24;;;;;;;9.60;5.87;;;17.40;95.00;;;;;;5086613;28;21064;-90
2021/04/29 11:18:10;;;;;;;7.40;6.70;;;17.20;94.80;;;;;;5088671;28;20775;-89
2021/04/29 11:20:49;;;;;;;7.43;6.60;;;17.30;94.50;;;;;;5090843;28;21001;-90
2021/04/29 11:23:17;;;;;;;6.13;5.53;;;17.20;94.80;;;;;;5094201;28;20654;-90
2021/04/29 11:25:44;;;;;;;6.53;5.63;;;17.20;95.10;;;;;;5087279;28;21083;-89
2021/04/29 11:28:12;;;;;;;4.67;4.20;;;17.00;96.30;;;;;;5086590;28;20648;-88
2021/04/29 11:30:43;;;;;;;41.60;29.57;;;16.40;96.80;;;;;;5088809;28;20608;-88
2021/04/29 11:33:12;;;;;;;77.17;67.53;;;15.40;98.80;;;;;;5085111;28;20580;-88
2021/04/29 11:35:42;;;;;;;8.53;7.83;;;15.50;98.90;;;;;;5091790;28;20638;-88
2021/04/29 11:38:11;;;;;;;5.00;4.60;;;15.20;99.00;;;;;;5078884;28;20624;-88
2021/04/29 11:40:38;;;;;;;5.47;4.77;;;15.40;98.50;;;;;;5093539;28;21269;-87
2021/04/29 11:43:06;;;;;;;4.70;4.10;;;15.30;98.20;;;;;;5085847;28;20632;-87
2021/04/29 11:45:35;;;;;;;5.63;5.13;;;15.20;98.20;;;;;;5091834;28;20659;-88
2021/04/29 11:48:05;;;;;;;5.57;4.67;;;14.90;98.90;;;;;;5090162;28;20620;-87
2021/04/29 11:50:33;;;;;;;6.13;4.80;;;15.20;98.50;;;;;;5087579;28;20632;-88
2021/04/29 11:53:10;;;;;;;4.67;4.17;;;15.10;98.00;;;;;;5088211;28;20621;-88
2021/04/29 11:55:42;;;;;;;3.63;3.33;;;15.00;97.40;;;;;;5089697;28;20651;-89
2021/04/29 11:58:11;;;;;;;4.20;3.90;;;15.00;97.70;;;;;;5085659;28;20698;-89
2021/04/29 12:00:39;;;;;;;4.60;4.10;;;15.00;97.70;;;;;;5084718;28;20640;-87
2021/04/29 12:03:08;;;;;;;4.30;3.87;;;14.80;97.00;;;;;;5087660;28;21560;-88
2021/04/29 12:05:40;;;;;;;5.33;4.47;;;14.50;97.90;;;;;;5086723;28;21195;-87
2021/04/29 12:08:10;;;;;;;5.10;4.37;;;14.30;97.90;;;;;;5088568;28;20644;-89
2021/04/29 12:10:50;;;;;;;5.00;4.50;;;14.40;99.10;;;;;;5093153;28;20946;-89
2021/04/29 12:13:29;;;;;;;5.23;4.73;;;14.40;99.80;;;;;;5090569;28;21035;-88
2021/04/29 12:15:57;;;;;;;6.23;4.10;;;14.70;99.90;;;;;;5085159;28;20662;-88
2021/04/29 12:18:30;;;;;;;7.40;6.70;;;14.90;99.90;;;;;;5103045;28;20672;-89
2021/04/29 12:20:59;;;;;;;5.07;4.57;;;15.80;98.40;;;;;;5091276;28;20608;-89
2021/04/29 12:23:35;;;;;;;6.90;4.80;;;16.60;96.70;;;;;;5088009;28;20632;-89
2021/04/29 12:26:18;;;;;;;4.33;3.93;;;17.50;94.50;;;;;;5100564;28;20731;-89
2021/04/29 12:28:44;;;;;;;5.10;3.13;;;17.60;93.40;;;;;;5107285;28;20659;-88
2021/04/29 12:31:20;;;;;;;3.70;3.40;;;17.40;92.80;;;;;;5092712;28;20691;-89
2021/04/29 12:34:07;;;;;;;4.03;3.60;;;16.70;93.30;;;;;;5100225;28;20651;-88
2021/04/29 12:36:52;;;;;;;4.60;3.77;;;16.40;94.20;;;;;;5103256;28;20624;-88
2021/04/29 12:39:29;;;;;;;8.40;3.37;;;16.60;94.90;;;;;;5094202;28;20651;-89
2021/04/29 12:42:05;;;;;;;5.50;3.37;;;16.80;93.80;;;;;;5096506;28;20623;-87
2021/04/29 12:44:50;;;;;;;3.93;2.70;;;16.40;93.20;;;;;;5099951;28;20632;-89
2021/04/29 12:47:24;;;;;;;3.57;3.27;;;15.80;94.20;;;;;;5100788;28;20625;-88
2021/04/29 12:49:59;;;;;;;3.90;3.30;;;15.90;94.80;;;;;;5098631;28;20766;-89
2021/04/29 12:52:43;;;;;;;3.70;3.40;;;16.10;94.30;;;;;;5104373;28;20596;-89
2021/04/29 12:55:13;;;;;;;3.53;3.23;;;17.20;92.10;;;;;;5100047;28;20628;-89
2021/04/29 12:57:41;;;;;;;3.87;3.57;;;18.10;91.40;;;;;;5098116;28;20663;-89